Time;durP1;ratioP1;P1;durP2;ratioP2;P2;SDS_P1;SDS_P2;PMS_P1;PMS_P2;Temp;Humidity;BMP_temperature;BMP_pressure;BME280_temperature;BME280_humidity;BME280_pressure;Samples;Min_cycle;Max_cycle;Signal;HPM_P1;HPM_P2
2022/11/25 00:02:01;;;;;;;;;;;;;;;12.20;80.75;100002.66;7390726;19;19915;-86
2022/11/25 00:04:32;;;;;;;;;;;;;;;12.19;80.45;99993.13;7392909;19;19974;-85
2022/11/25 00:07:02;;;;;;;;;;;;;;;12.19;81.02;99999.19;7393968;19;19932;-83
2022/11/25 00:09:29;;;;;;;;;;;;;;;12.19;80.68;99993.91;7394770;19;20254;-87
2022/11/25 00:11:56;;;;;;;;;;;;;;;12.18;80.56;99983.56;7389327;19;19919;-84
2022/11/25 00:14:26;;;;;;;;;;;;;;;12.17;80.98;99987.19;7392691;19;20242;-85
2022/11/25 00:16:53;;;;;;;;;;;;;;;12.14;80.43;99983.09;7391021;19;19927;-84
2022/11/25 00:19:23;;;;;;;;;;;;;;;12.13;80.34;99985.94;7391766;19;19959;-86
2022/11/25 00:21:50;;;;;;;;;;;;;;;12.14;81.07;99985.72;7390248;19;19926;-85
2022/11/25 00:24:18;;;;;;;;;;;;;;;12.13;80.66;99976.22;7391045;19;19939;-84
2022/11/25 00:26:45;;;;;;;;;;;;;;;12.13;80.54;99978.03;7389750;19;19919;-85
2022/11/25 00:29:13;;;;;;;;;;;;;;;12.14;80.56;99982.31;7389206;19;19926;-84
2022/11/25 00:31:40;;;;;;;;;;;;;;;12.15;80.43;99986.56;7389376;19;19943;-85
2022/11/25 00:34:11;;;;;;;;;;;;;;;12.16;80.43;99989.03;7388972;19;19921;-84
2022/11/25 00:36:38;;;;;;;;;;;;;;;12.19;81.26;99996.56;7388450;19;19923;-85
2022/11/25 00:39:08;;;;;;;;;;;;;;;12.21;80.87;99993.75;7389168;19;19935;-84
2022/11/25 00:46:38;;;;;;;;;;;;;;;12.20;79.98;100000.81;7388316;19;20487;-83
2022/11/25 00:49:06;;;;;;;;;;;;;;;12.19;79.80;100001.03;7387556;19;20231;-85
2022/11/25 00:51:33;;;;;;;;;;;;;;;12.21;81.24;100005.09;7388127;19;19918;-85
2022/11/25 00:54:00;;;;;;;;;;;;;;;12.22;80.11;100006.75;7388448;19;19927;-84
2022/11/25 00:56:29;;;;;;;;;;;;;;;12.22;79.79;100005.94;7389480;19;19919;-84
2022/11/25 00:58:56;;;;;;;;;;;;;;;12.21;79.50;100010.38;7391154;19;19915;-83
2022/11/25 01:01:23;;;;;;;;;;;;;;;12.16;79.17;100023.31;7384224;19;19970;-85
2022/11/25 01:03:54;;;;;;;;;;;;;;;12.15;79.76;100024.28;7383181;19;19922;-85
2022/11/25 01:06:22;;;;;;;;;;;;;;;12.13;79.74;100020.22;7387516;19;19919;-84
2022/11/25 01:08:51;;;;;;;;;;;;;;;12.12;79.20;100029.13;7388895;19;19943;-84
2022/11/25 01:11:19;;;;;;;;;;;;;;;12.09;79.21;100026.88;7384727;19;19926;-85
2022/11/25 01:13:46;;;;;;;;;;;;;;;12.10;79.61;100037.22;7386536;19;19927;-86
2022/11/25 01:16:16;;;;;;;;;;;;;;;12.11;79.35;100030.13;7386854;19;20015;-84
2022/11/25 01:18:44;;;;;;;;;;;;;;;12.10;79.00;100034.56;7385181;19;19929;-84
2022/11/25 01:21:13;;;;;;;;;;;;;;;12.06;79.22;100033.31;7379362;19;20400;-84
2022/11/25 01:23:41;;;;;;;;;;;;;;;12.05;80.15;100042.22;7389324;19;19911;-84
2022/11/25 01:26:10;;;;;;;;;;;;;;;12.05;79.49;100046.66;7385298;19;20719;-85
2022/11/25 01:28:37;;;;;;;;;;;;;;;12.02;79.91;100047.03;7387311;19;19919;-84
2022/11/25 01:31:11;;;;;;;;;;;;;;;12.00;79.53;100055.13;7384434;19;19930;-83
2022/11/25 01:33:59;;;;;;;;;;;;;;;11.98;79.22;100059.78;7381768;19;20282;-85
2022/11/25 01:36:26;;;;;;;;;;;;;;;11.98;80.44;100060.59;7383203;19;19917;-84
2022/11/25 01:38:56;;;;;;;;;;;;;;;11.97;79.98;100056.31;7382266;19;19923;-85
2022/11/25 01:41:25;;;;;;;;;;;;;;;11.97;80.54;100069.50;7383775;19;19919;-83
2022/11/25 01:43:57;;;;;;;;;;;;;;;11.96;80.35;100074.94;7384907;19;19919;-84
2022/11/25 01:46:26;;;;;;;;;;;;;;;11.96;80.92;100067.84;7383832;19;19936;-83
2022/11/25 01:48:56;;;;;;;;;;;;;;;11.99;81.11;100070.13;7384279;19;20970;-84
2022/11/25 01:51:27;;;;;;;;;;;;;;;12.00;80.31;100076.22;7386669;19;20239;-85
2022/11/25 01:53:57;;;;;;;;;;;;;;;12.03;80.61;100081.16;7383464;19;19952;-84
2022/11/25 01:56:27;;;;;;;;;;;;;;;12.04;80.69;100082.75;7384852;19;19950;-84
2022/11/25 01:58:55;;;;;;;;;;;;;;;12.04;80.38;100080.13;7387843;19;19974;-85
2022/11/25 02:01:25;;;;;;;;;;;;;;;12.05;80.82;100084.41;7388894;19;20553;-87
2022/11/25 02:03:55;;;;;;;;;;;;;;;12.07;80.56;100094.78;7391521;19;19919;-86
2022/11/25 02:13:01;;;;;;;;;;;;;;;12.04;79.70;100106.50;7392440;19;19915;-84
2022/11/25 02:15:30;;;;;;;;;;;;;;;12.04;79.59;100108.34;7393731;19;19939;-84
2022/11/25 02:17:57;;;;;;;;;;;;;;;12.02;79.43;100115.59;7396580;19;20264;-85
2022/11/25 02:20:28;;;;;;;;;;;;;;;11.99;79.59;100122.03;7383337;19;22575;-85
2022/11/25 02:22:57;;;;;;;;;;;;;;;11.96;79.65;100125.84;7387346;19;19923;-85
2022/11/25 02:28:43;;;;;;;;;;;;;;;11.92;80.45;100132.50;7393784;19;19914;-85
2022/11/25 02:31:10;;;;;;;;;;;;;;;11.94;80.97;100132.28;7393978;19;20279;-84
2022/11/25 02:33:38;;;;;;;;;;;;;;;11.97;81.59;100139.88;7394357;19;20472;-83
2022/11/25 02:36:14;;;;;;;;;;;;;;;11.96;80.98;100135.59;7390152;19;19915;-84
2022/11/25 02:38:44;;;;;;;;;;;;;;;11.95;80.50;100136.56;7390246;19;19929;-84
2022/11/25 02:41:13;;;;;;;;;;;;;;;11.94;80.12;100148.94;7389181;19;19919;-84
2022/11/25 02:43:41;;;;;;;;;;;;;;;11.92;80.20;100147.47;7389944;19;19919;-85
2022/11/25 02:46:09;;;;;;;;;;;;;;;11.90;80.42;100144.19;7392485;19;19938;-84
2022/11/25 02:48:38;;;;;;;;;;;;;;;11.91;80.91;100143.19;7394544;19;19926;-84
2022/11/25 03:11:17;;;;;;;;;;;;;;;11.86;81.55;100183.28;7395399;19;19911;-84
2022/11/25 03:13:44;;;;;;;;;;;;;;;11.85;81.37;100186.91;7393982;19;20373;-83
2022/11/25 03:16:12;;;;;;;;;;;;;;;11.81;81.04;100188.25;7390158;19;19926;-83
2022/11/25 03:18:39;;;;;;;;;;;;;;;11.81;81.58;100196.16;7387934;19;19911;-83
2022/11/25 03:21:07;;;;;;;;;;;;;;;11.83;82.32;100201.28;7389622;19;19915;-83
2022/11/25 03:23:35;;;;;;;;;;;;;;;11.85;81.79;100200.09;7395162;19;19915;-83
2022/11/25 03:26:05;;;;;;;;;;;;;;;11.84;81.11;100206.34;7394084;19;19929;-84
2022/11/25 03:28:33;;;;;;;;;;;;;;;11.82;80.97;100205.72;7385216;19;19940;-86
2022/11/25 03:31:00;;;;;;;;;;;;;;;11.80;80.98;100212.97;7395625;19;19927;-84
2022/11/25 03:33:27;;;;;;;;;;;;;;;11.82;81.89;100216.28;7391587;19;21198;-85
2022/11/25 03:35:55;;;;;;;;;;;;;;;11.83;81.80;100217.91;7392409;19;19923;-85
2022/11/25 03:38:25;;;;;;;;;;;;;;;11.82;81.22;100226.81;7390509;19;19919;-85
2022/11/25 03:40:52;;;;;;;;;;;;;;;11.81;81.31;100222.53;7387839;19;19930;-85
2022/11/25 03:43:21;;;;;;;;;;;;;;;11.83;82.10;100227.63;7392123;19;19914;-84
2022/11/25 03:45:49;;;;;;;;;;;;;;;11.80;82.18;100227.97;7389976;19;19930;-85
2022/11/25 03:48:19;;;;;;;;;;;;;;;11.81;81.50;100234.88;7385411;19;20262;-83
2022/11/25 03:50:48;;;;;;;;;;;;;;;11.82;82.71;100241.81;7385710;19;19918;-83
2022/11/25 03:53:15;;;;;;;;;;;;;;;11.83;82.42;100241.63;7390960;19;19931;-83
2022/11/25 03:55:47;;;;;;;;;;;;;;;11.82;82.43;100247.06;7390613;19;19919;-84
2022/11/25 03:58:14;;;;;;;;;;;;;;;11.84;82.74;100248.53;7392389;19;19915;-84
2022/11/25 04:00:41;;;;;;;;;;;;;;;11.83;82.71;100254.00;7382362;19;19918;-84
2022/11/25 04:03:09;;;;;;;;;;;;;;;11.83;81.95;100267.19;7389623;19;19923;-85
2022/11/25 04:05:36;;;;;;;;;;;;;;;11.85;82.64;100262.53;7389851;19;20354;-85
2022/11/25 04:08:03;;;;;;;;;;;;;;;11.84;82.46;100274.06;7396069;19;19914;-85
2022/11/25 04:10:31;;;;;;;;;;;;;;;11.84;81.87;100280.16;7386546;19;20291;-85
2022/11/25 04:12:58;;;;;;;;;;;;;;;11.84;82.09;100281.97;7391350;19;19915;-83
2022/11/25 04:15:27;;;;;;;;;;;;;;;11.84;82.60;100287.25;7391167;19;19926;-84
2022/11/25 04:18:02;;;;;;;;;;;;;;;11.84;83.38;100287.25;7392722;19;20698;-84
2022/11/25 04:20:35;;;;;;;;;;;;;;;11.78;82.52;100291.44;7393211;19;19943;-84
2022/11/25 04:23:12;;;;;;;;;;;;;;;11.78;83.21;100295.88;7391218;19;19911;-84
2022/11/25 04:25:39;;;;;;;;;;;;;;;11.79;83.38;100303.59;7391128;19;19918;-85
2022/11/25 04:28:07;;;;;;;;;;;;;;;11.80;83.12;100310.50;7389262;19;19926;-84
2022/11/25 04:30:34;;;;;;;;;;;;;;;11.81;83.44;100312.16;7389818;19;19929;-84
2022/11/25 04:33:01;;;;;;;;;;;;;;;11.81;82.96;100309.50;7390603;19;19923;-83
2022/11/25 04:35:32;;;;;;;;;;;;;;;11.78;82.51;100323.06;7390332;19;20614;-84
2022/11/25 04:37:59;;;;;;;;;;;;;;;11.77;82.57;100310.03;7391196;19;19928;-83
2022/11/25 04:40:27;;;;;;;;;;;;;;;11.76;82.25;100321.56;7388356;19;19915;-85
2022/11/25 04:42:54;;;;;;;;;;;;;;;11.75;82.30;100328.66;7399468;19;19947;-84
2022/11/25 04:45:33;;;;;;;;;;;;;;;11.72;81.71;100339.53;7391857;19;19954;-84
2022/11/25 04:48:21;;;;;;;;;;;;;;;11.69;82.08;100344.28;7399961;19;20277;-85
2022/11/25 04:50:48;;;;;;;;;;;;;;;11.69;81.94;100349.56;7394014;19;19915;-85
2022/11/25 04:53:16;;;;;;;;;;;;;;;11.68;82.27;100351.41;7397084;19;19907;-85
2022/11/25 04:55:46;;;;;;;;;;;;;;;11.67;82.52;100370.00;7395595;19;19907;-83
2022/11/25 04:59:38;;;;;;;;;;;;;;;11.68;82.83;100371.66;7388870;19;19911;-84
2022/11/25 05:01:01;;;;;;;;;;;;;;;11.70;82.95;100374.94;7387932;19;20431;-84
2022/11/25 05:03:29;;;;;;;;;;;;;;;11.67;82.37;100372.66;7390730;19;19914;-84
2022/11/25 05:05:56;;;;;;;;;;;;;;;11.64;81.99;100381.69;7390080;19;19940;-85
2022/11/25 05:14:54;;;;;;;;;;;;;;;11.63;82.83;100401.13;7403409;19;19919;-85
2022/11/25 05:17:23;;;;;;;;;;;;;;;11.64;82.72;100415.13;7388952;19;20252;-83
2022/11/25 05:19:51;;;;;;;;;;;;;;;11.62;82.58;100412.69;7385134;19;20295;-85
2022/11/25 05:22:20;;;;;;;;;;;;;;;11.58;82.41;100425.34;7391665;19;20396;-85
2022/11/25 05:24:47;;;;;;;;;;;;;;;11.57;82.43;100417.66;7393144;19;19929;-83
2022/11/25 05:27:15;;;;;;;;;;;;;;;11.56;82.64;100432.63;7394530;19;20334;-84
2022/11/25 05:29:42;;;;;;;;;;;;;;;11.57;83.39;100431.66;7391718;19;19915;-84
2022/11/25 05:32:12;;;;;;;;;;;;;;;11.58;82.75;100435.91;7389427;19;20329;-84
2022/11/25 05:34:40;;;;;;;;;;;;;;;11.57;82.86;100434.28;7389416;19;19930;-85
2022/11/25 05:37:12;;;;;;;;;;;;;;;11.53;82.55;100442.66;7390511;19;19907;-84
2022/11/25 05:39:39;;;;;;;;;;;;;;;11.52;82.92;100447.13;7389428;19;19915;-85
2022/11/25 05:42:06;;;;;;;;;;;;;;;11.52;82.60;100454.22;7390680;19;19915;-86
2022/11/25 05:44:34;;;;;;;;;;;;;;;11.53;83.45;100455.84;7395206;19;20306;-84
2022/11/25 05:47:02;;;;;;;;;;;;;;;11.55;83.61;100459.13;7390957;19;19915;-84
2022/11/25 05:49:29;;;;;;;;;;;;;;;11.55;83.36;100454.69;7394942;19;19925;-85
2022/11/25 05:51:56;;;;;;;;;;;;;;;11.54;82.57;100453.03;7398799;19;20350;-85
2022/11/25 05:54:24;;;;;;;;;;;;;;;11.51;82.28;100461.28;7408067;19;19954;-84
2022/11/25 05:56:56;;;;;;;;;;;;;;;11.47;82.82;100467.91;7400769;19;19927;-86
2022/11/25 05:59:24;;;;;;;;;;;;;;;11.49;83.68;100470.34;7401590;19;19919;-85
2022/11/25 06:08:28;;;;;;;;;;;;;;;11.39;83.58;100502.13;7399530;19;19939;-84
2022/11/25 06:10:55;;;;;;;;;;;;;;;11.43;83.96;100510.53;7396936;19;19929;-83
2022/11/25 06:13:22;;;;;;;;;;;;;;;11.46;83.78;100518.09;7395876;19;19931;-84
2022/11/25 06:15:49;;;;;;;;;;;;;;;11.47;83.61;100535.56;7393531;19;19915;-84
2022/11/25 06:18:17;;;;;;;;;;;;;;;11.48;83.62;100545.09;7393294;19;19985;-86
2022/11/25 06:20:44;;;;;;;;;;;;;;;11.51;84.24;100557.94;7392266;19;19915;-84
2022/11/25 06:23:13;;;;;;;;;;;;;;;11.53;83.63;100564.69;7410017;19;19923;-85
2022/11/25 06:25:45;;;;;;;;;;;;;;;11.55;84.20;100575.91;7415228;19;19915;-84
2022/11/25 06:28:21;;;;;;;;;;;;;;;11.60;84.37;100575.41;7411658;19;20318;-85
2022/11/25 06:30:54;;;;;;;;;;;;;;;11.62;83.48;100576.06;7393540;19;19922;-85
2022/11/25 06:33:21;;;;;;;;;;;;;;;11.58;83.54;100578.19;7390903;19;19922;-84
2022/11/25 06:35:48;;;;;;;;;;;;;;;11.59;83.25;100595.66;7389897;19;19933;-85
2022/11/25 06:38:15;;;;;;;;;;;;;;;11.62;83.53;100605.06;7391903;19;20435;-85
2022/11/25 06:43:47;;;;;;;;;;;;;;;11.66;83.86;100610.81;7392049;19;20014;-83
2022/11/25 06:46:15;;;;;;;;;;;;;;;11.65;84.37;100617.91;7392124;19;19947;-85
2022/11/25 06:48:50;;;;;;;;;;;;;;;11.63;83.70;100617.22;7391168;19;20333;-84
2022/11/25 06:51:17;;;;;;;;;;;;;;;11.61;83.15;100626.28;7391672;19;19919;-85
2022/11/25 06:53:45;;;;;;;;;;;;;;;11.58;83.02;100630.88;7391718;19;19986;-84
2022/11/25 06:56:16;;;;;;;;;;;;;;;11.58;83.42;100637.97;7380874;19;19926;-83
2022/11/25 06:58:44;;;;;;;;;;;;;;;11.56;84.00;100635.53;7389514;19;19951;-84
2022/11/25 07:01:13;;;;;;;;;;;;;;;11.56;84.27;100642.59;7389782;19;19918;-85
2022/11/25 07:03:40;;;;;;;;;;;;;;;11.56;84.17;100650.50;7393205;19;20285;-84
2022/11/25 07:06:08;;;;;;;;;;;;;;;11.50;83.58;100645.88;7393404;19;19946;-83
2022/11/25 07:08:38;;;;;;;;;;;;;;;11.50;84.40;100659.88;7392839;19;19928;-85
2022/11/25 07:11:06;;;;;;;;;;;;;;;11.48;83.91;100661.84;7391219;19;20298;-84
2022/11/25 07:13:34;;;;;;;;;;;;;;;11.49;83.38;100673.22;7393099;19;19954;-83
2022/11/25 07:16:05;;;;;;;;;;;;;;;11.46;83.27;100682.28;7394097;19;19946;-85
2022/11/25 07:18:33;;;;;;;;;;;;;;;11.45;83.24;100685.06;7392436;19;19923;-84
2022/11/25 07:21:03;;;;;;;;;;;;;;;11.42;83.32;100691.50;7390302;19;19950;-84
2022/11/25 07:23:30;;;;;;;;;;;;;;;11.39;83.74;100696.25;7394073;19;20266;-84
2022/11/25 07:26:08;;;;;;;;;;;;;;;11.38;83.72;100700.69;7389483;19;20416;-84
2022/11/25 07:28:35;;;;;;;;;;;;;;;11.39;84.36;100709.41;7390900;19;19978;-84
2022/11/25 07:31:06;;;;;;;;;;;;;;;11.39;84.05;100719.94;7390714;19;20381;-86
2022/11/25 07:33:54;;;;;;;;;;;;;;;11.36;83.29;100729.00;7389050;19;20360;-85
2022/11/25 07:36:22;;;;;;;;;;;;;;;11.34;83.41;100736.25;7391611;19;19919;-84
2022/11/25 07:38:49;;;;;;;;;;;;;;;11.35;83.50;100740.53;7394918;19;19931;-86
2022/11/25 07:44:35;;;;;;;;;;;;;;;11.30;83.38;100766.53;7394113;19;19923;-85
2022/11/25 07:47:02;;;;;;;;;;;;;;;11.31;84.19;100770.00;7389585;19;19950;-84
2022/11/25 07:49:29;;;;;;;;;;;;;;;11.28;83.54;100779.03;7388071;19;20356;-84
2022/11/25 07:51:58;;;;;;;;;;;;;;;11.27;83.50;100789.72;7392131;19;20344;-85
2022/11/25 07:54:25;;;;;;;;;;;;;;;11.28;83.63;100804.53;7390013;19;19919;-85
2022/11/25 07:56:53;;;;;;;;;;;;;;;11.31;83.91;100806.88;7389517;19;19929;-85
2022/11/25 07:59:21;;;;;;;;;;;;;;;11.33;83.76;100810.97;7390993;19;19939;-84
2022/11/25 08:01:49;;;;;;;;;;;;;;;11.32;83.57;100814.63;7391230;19;20293;-84
2022/11/25 08:04:17;;;;;;;;;;;;;;;11.34;83.81;100823.16;7391122;19;19939;-84
2022/11/25 08:06:47;;;;;;;;;;;;;;;11.33;83.55;100825.94;7391274;19;19930;-85
2022/11/25 08:09:18;;;;;;;;;;;;;;;11.35;83.50;100834.53;7388804;19;19929;-86
2022/11/25 08:11:46;;;;;;;;;;;;;;;11.37;83.62;100833.41;7387552;19;19922;-86
2022/11/25 08:14:15;;;;;;;;;;;;;;;11.37;83.50;100843.94;7391089;19;20436;-85
2022/11/25 08:16:43;;;;;;;;;;;;;;;11.39;83.92;100841.13;7384876;19;19919;-85
2022/11/25 08:19:14;;;;;;;;;;;;;;;11.46;87.50;100850.06;7386769;19;20246;-84
2022/11/25 08:21:41;;;;;;;;;;;;;;;11.56;88.56;100866.59;7385333;19;19990;-86
2022/11/25 08:24:11;;;;;;;;;;;;;;;11.61;86.87;100869.56;7385166;19;19961;-85
2022/11/25 08:26:41;;;;;;;;;;;;;;;11.76;88.98;100872.47;7384215;19;19930;-85
2022/11/25 08:32:27;;;;;;;;;;;;;;;11.87;84.61;100891.44;7390105;19;19926;-84
2022/11/25 08:34:55;;;;;;;;;;;;;;;11.81;82.75;100891.25;7387232;19;20061;-86
2022/11/25 08:37:22;;;;;;;;;;;;;;;11.77;82.93;100887.28;7388021;19;20426;-85
2022/11/25 08:39:50;;;;;;;;;;;;;;;11.71;82.73;100896.63;7390570;19;19918;-85
2022/11/25 08:42:19;;;;;;;;;;;;;;;11.69;81.89;100905.66;7388627;19;19915;-87
2022/11/25 08:44:50;;;;;;;;;;;;;;;11.68;82.06;100914.56;7390341;19;19922;-85
2022/11/25 08:47:17;;;;;;;;;;;;;;;11.67;82.43;100926.09;7385128;19;21626;-84
2022/11/25 08:49:45;;;;;;;;;;;;;;;11.69;82.55;100924.09;7383148;19;19922;-86
2022/11/25 08:52:13;;;;;;;;;;;;;;;11.69;82.73;100935.47;7382924;19;19923;-86
2022/11/25 08:54:43;;;;;;;;;;;;;;;11.71;82.78;100945.88;7381633;19;19929;-85
2022/11/25 08:57:13;;;;;;;;;;;;;;;11.70;82.37;100952.13;7381995;19;19925;-84
2022/11/25 08:59:40;;;;;;;;;;;;;;;11.69;82.18;100963.66;7383368;19;19919;-86
2022/11/25 09:02:08;;;;;;;;;;;;;;;11.67;82.10;100973.53;7382612;19;21411;-84
2022/11/25 09:04:37;;;;;;;;;;;;;;;11.68;82.20;100978.66;7382569;19;19927;-85
2022/11/25 09:07:04;;;;;;;;;;;;;;;11.68;81.99;100985.75;7384148;19;20343;-85
2022/11/25 09:09:32;;;;;;;;;;;;;;;11.67;81.74;100992.00;7389617;19;19923;-85
2022/11/25 09:12:04;;;;;;;;;;;;;;;11.68;81.84;101001.56;7385690;19;19935;-84
2022/11/25 09:14:33;;;;;;;;;;;;;;;11.69;81.88;101006.66;7382403;19;19921;-85
2022/11/25 09:17:01;;;;;;;;;;;;;;;11.71;82.18;101015.25;7386086;19;19930;-84
2022/11/25 09:19:28;;;;;;;;;;;;;;;11.75;82.07;101021.88;7386002;19;19919;-88
2022/11/25 09:21:55;;;;;;;;;;;;;;;11.77;82.11;101025.19;7390163;19;20226;-87
2022/11/25 09:24:22;;;;;;;;;;;;;;;11.75;81.66;101039.50;7396774;19;20324;-86
2022/11/25 09:26:49;;;;;;;;;;;;;;;11.75;81.31;101035.06;7392562;19;19915;-85
2022/11/25 09:29:17;;;;;;;;;;;;;;;11.77;82.08;101019.94;7391550;19;19986;-85
2022/11/25 09:31:44;;;;;;;;;;;;;;;11.75;81.82;101035.06;7394201;19;19927;-84
2022/11/25 09:34:18;;;;;;;;;;;;;;;11.76;82.41;101039.34;7400706;19;20021;-87
2022/11/25 09:36:46;;;;;;;;;;;;;;;11.78;82.23;101047.94;7397223;19;19943;-87
2022/11/25 09:39:13;;;;;;;;;;;;;;;11.79;82.23;101059.28;7394799;19;20361;-85
2022/11/25 09:46:54;;;;;;;;;;;;;;;11.92;81.76;101065.00;7394757;19;19911;-85
2022/11/25 09:49:22;;;;;;;;;;;;;;;11.95;81.94;101069.94;7393273;19;19946;-85
2022/11/25 09:51:49;;;;;;;;;;;;;;;11.98;81.25;101074.94;7393203;19;19939;-86
2022/11/25 09:54:16;;;;;;;;;;;;;;;12.01;80.87;101079.88;7393028;19;20211;-85
2022/11/25 09:56:49;;;;;;;;;;;;;;;12.05;80.70;101083.03;7392282;19;19939;-88
2022/11/25 09:59:19;;;;;;;;;;;;;;;12.09;80.57;101085.19;7393261;19;20313;-86
2022/11/25 10:02:21;;;;;;;;;;;;;;;12.13;80.26;101088.38;7392394;19;19987;-86
2022/11/25 10:05:08;;;;;;;;;;;;;;;12.16;80.34;101086.22;7392009;19;20257;-85
2022/11/25 10:07:42;;;;;;;;;;;;;;;12.20;79.95;101098.13;7393800;19;19919;-86
2022/11/25 10:10:18;;;;;;;;;;;;;;;12.22;79.48;101098.81;7392991;19;20645;-86
2022/11/25 10:12:46;;;;;;;;;;;;;;;12.25;79.72;101101.13;7390598;19;19948;-86
2022/11/25 10:15:18;;;;;;;;;;;;;;;12.25;79.28;101114.31;7392015;19;20169;-86
2022/11/25 10:17:48;;;;;;;;;;;;;;;12.28;78.99;101105.25;7392468;19;19943;-85
2022/11/25 10:20:16;;;;;;;;;;;;;;;12.33;79.24;101118.81;7395838;19;19979;-85
2022/11/25 10:22:48;;;;;;;;;;;;;;;12.33;78.73;101110.91;7391653;19;19938;-85
2022/11/25 10:25:18;;;;;;;;;;;;;;;12.34;78.45;101121.28;7397034;19;19927;-86
2022/11/25 10:27:49;;;;;;;;;;;;;;;12.39;78.84;101115.56;7393365;19;20010;-85
2022/11/25 10:30:19;;;;;;;;;;;;;;;12.46;78.93;101121.84;7391940;19;19918;-86
2022/11/25 10:32:52;;;;;;;;;;;;;;;12.54;79.32;101126.34;7394903;19;19943;-85
2022/11/25 10:35:29;;;;;;;;;;;;;;;12.59;79.06;101126.69;7396008;19;20381;-86
2022/11/25 10:37:59;;;;;;;;;;;;;;;12.63;78.75;101120.09;7396635;19;19922;-86
2022/11/25 10:40:29;;;;;;;;;;;;;;;12.66;78.23;101125.88;7392066;19;19911;-87
2022/11/25 10:42:57;;;;;;;;;;;;;;;12.67;78.06;101132.00;7390064;19;19919;-85
2022/11/25 10:45:32;;;;;;;;;;;;;;;12.68;77.91;101131.03;7388981;19;19955;-86
2022/11/25 10:48:02;;;;;;;;;;;;;;;12.74;77.76;101143.59;7391880;19;19938;-86
2022/11/25 10:50:33;;;;;;;;;;;;;;;12.75;77.17;101137.31;7392016;19;20339;-86
2022/11/25 10:53:08;;;;;;;;;;;;;;;12.76;76.54;101131.88;7390438;19;19918;-85
2022/11/25 10:55:35;;;;;;;;;;;;;;;12.79;76.72;101136.84;7388818;19;19919;-85
2022/11/25 10:58:06;;;;;;;;;;;;;;;12.81;76.66;101131.38;7386336;19;20341;-86
2022/11/25 11:00:35;;;;;;;;;;;;;;;12.83;76.46;101134.72;7390013;19;19990;-85
2022/11/25 11:03:06;;;;;;;;;;;;;;;12.86;76.35;101143.13;7388458;19;19907;-84
2022/11/25 11:05:42;;;;;;;;;;;;;;;12.89;76.22;101142.00;7391512;19;19919;-85
2022/11/25 11:14:48;;;;;;;;;;;;;;;13.02;76.04;101160.00;7396189;19;20798;-85
2022/11/25 11:17:19;;;;;;;;;;;;;;;13.05;76.41;101165.84;7384357;19;19927;-85
2022/11/25 11:19:59;;;;;;;;;;;;;;;13.09;75.81;101172.44;7386936;19;19943;-85
2022/11/25 11:22:26;;;;;;;;;;;;;;;13.13;74.32;101179.09;7388825;19;20329;-84
2022/11/25 11:25:04;;;;;;;;;;;;;;;13.14;75.43;101179.91;7388407;19;19930;-84
2022/11/25 11:27:35;;;;;;;;;;;;;;;13.15;75.54;101181.56;7387448;19;19919;-85
2022/11/25 11:30:06;;;;;;;;;;;;;;;13.19;75.29;101172.34;7385370;19;19926;-85
2022/11/25 11:32:33;;;;;;;;;;;;;;;13.23;74.97;101181.59;7388551;19;19914;-85
2022/11/25 11:35:07;;;;;;;;;;;;;;;13.28;75.61;101187.22;7389833;19;19918;-85
2022/11/25 11:37:37;;;;;;;;;;;;;;;13.34;75.75;101196.31;7388550;19;19919;-84
2022/11/25 11:40:07;;;;;;;;;;;;;;;13.36;75.62;101194.34;7385568;19;19991;-86
2022/11/25 11:42:37;;;;;;;;;;;;;;;13.35;74.11;101196.16;7386104;19;19982;-84
2022/11/25 11:45:05;;;;;;;;;;;;;;;13.37;74.45;101196.81;7385688;19;20310;-84
2022/11/25 11:47:36;;;;;;;;;;;;;;;13.42;75.36;101207.72;7393598;19;19922;-85
2022/11/25 11:50:16;;;;;;;;;;;;;;;13.44;74.30;101215.50;7394818;19;19911;-86
2022/11/25 11:52:43;;;;;;;;;;;;;;;13.49;75.10;101221.97;7385953;19;20445;-85
2022/11/25 11:55:14;;;;;;;;;;;;;;;13.48;73.91;101224.75;7385812;19;19931;-84
2022/11/25 11:57:44;;;;;;;;;;;;;;;13.43;72.97;101214.66;7387363;19;19926;-84
2022/11/25 12:00:12;;;;;;;;;;;;;;;13.46;74.75;101219.63;7387253;19;19919;-86
2022/11/25 12:02:43;;;;;;;;;;;;;;;13.51;74.60;101224.44;7395671;19;19922;-84
2022/11/25 12:05:11;;;;;;;;;;;;;;;13.54;76.88;101230.22;7393792;19;19919;-85
2022/11/25 12:07:44;;;;;;;;;;;;;;;13.58;75.33;101238.66;7393313;19;19923;-86
2022/11/25 12:10:13;;;;;;;;;;;;;;;13.59;73.44;101243.78;7394033;19;19946;-85
2022/11/25 12:12:44;;;;;;;;;;;;;;;13.62;71.80;101245.28;7392810;19;19930;-86
2022/11/25 12:18:34;;;;;;;;;;;;;;;13.66;69.49;101257.22;7391281;19;20326;-86
2022/11/25 12:21:04;;;;;;;;;;;;;;;13.65;69.13;101266.13;7390052;19;19922;-85
2022/11/25 12:23:35;;;;;;;;;;;;;;;13.67;69.42;101272.06;7393748;19;20290;-85
2022/11/25 12:26:05;;;;;;;;;;;;;;;13.71;69.64;101276.06;7386312;19;19927;-84
2022/11/25 12:28:40;;;;;;;;;;;;;;;13.74;69.53;101281.00;7385310;19;19918;-85
2022/11/25 12:31:11;;;;;;;;;;;;;;;13.74;69.02;101278.38;7381668;19;20597;-86
2022/11/25 12:33:41;;;;;;;;;;;;;;;13.77;69.78;101272.75;7386257;19;19943;-85
2022/11/25 12:36:11;;;;;;;;;;;;;;;13.79;70.06;101284.00;7386160;19;20518;-85
2022/11/25 12:38:41;;;;;;;;;;;;;;;13.82;69.35;101282.84;7388331;19;19926;-84
2022/11/25 12:41:11;;;;;;;;;;;;;;;13.84;69.25;101294.09;7384993;19;19982;-85
2022/11/25 12:43:42;;;;;;;;;;;;;;;13.83;68.41;101305.66;7385568;19;19914;-85
2022/11/25 12:46:13;;;;;;;;;;;;;;;13.83;69.09;101306.47;7388628;19;19922;-85
2022/11/25 12:48:42;;;;;;;;;;;;;;;13.85;70.05;101312.47;7390172;19;19927;-85
2022/11/25 12:51:12;;;;;;;;;;;;;;;13.84;69.29;101315.25;7387912;19;19938;-85
2022/11/25 12:53:49;;;;;;;;;;;;;;;13.85;70.68;101322.19;7393010;19;19931;-84
2022/11/25 12:56:21;;;;;;;;;;;;;;;13.87;69.75;101325.50;7389193;19;20021;-85
2022/11/25 12:58:51;;;;;;;;;;;;;;;13.88;68.89;101329.81;7394797;19;19939;-86
2022/11/25 13:01:20;;;;;;;;;;;;;;;13.89;69.38;101315.59;7396123;19;20260;-86
2022/11/25 13:03:51;;;;;;;;;;;;;;;13.90;69.53;101326.03;7388967;19;19929;-86
2022/11/25 13:06:21;;;;;;;;;;;;;;;13.92;70.29;101329.31;7389770;19;20317;-84
2022/11/25 13:08:49;;;;;;;;;;;;;;;13.94;69.91;101324.69;7397279;19;21597;-85
2022/11/25 13:11:18;;;;;;;;;;;;;;;13.96;70.47;101317.44;7395482;19;19921;-86
2022/11/25 13:13:49;;;;;;;;;;;;;;;13.95;70.22;101320.25;7405224;19;19929;-86
2022/11/25 13:16:18;;;;;;;;;;;;;;;13.94;70.80;101314.13;7401512;19;19925;-85
2022/11/25 13:18:47;;;;;;;;;;;;;;;13.94;69.80;101319.41;7388433;19;19930;-85
2022/11/25 13:21:15;;;;;;;;;;;;;;;13.93;69.39;101330.97;7390916;19;19926;-86
2022/11/25 13:26:49;;;;;;;;;;;;;;;13.90;69.42;101346.34;7391047;19;19915;-86
2022/11/25 13:29:17;;;;;;;;;;;;;;;13.91;70.05;101340.91;7393729;19;20317;-86
2022/11/25 13:31:48;;;;;;;;;;;;;;;13.92;70.41;101354.94;7389866;19;19926;-84
2022/11/25 13:34:24;;;;;;;;;;;;;;;13.91;69.05;101358.59;7391290;19;19982;-86
2022/11/25 13:36:55;;;;;;;;;;;;;;;13.90;69.67;101363.06;7392160;19;19907;-85
2022/11/25 13:39:23;;;;;;;;;;;;;;;13.90;70.17;101364.88;7388979;19;19933;-84
2022/11/25 13:41:54;;;;;;;;;;;;;;;13.90;69.20;101376.28;7394563;19;19933;-87
2022/11/25 13:44:33;;;;;;;;;;;;;;;13.91;68.71;101375.31;7401331;19;19914;-85
2022/11/25 13:47:04;;;;;;;;;;;;;;;13.95;69.81;101381.09;7393284;19;19922;-87
2022/11/25 13:53:21;;;;;;;;;;;;;;;13.95;68.52;101403.09;7391844;19;19916;-85
2022/11/25 13:55:50;;;;;;;;;;;;;;;13.96;69.16;101404.75;7388610;19;19919;-86
2022/11/25 13:58:20;;;;;;;;;;;;;;;13.99;68.64;101406.25;7389958;19;19911;-85
2022/11/25 14:00:49;;;;;;;;;;;;;;;14.02;69.16;101408.56;7392077;19;19907;-85
2022/11/25 14:03:17;;;;;;;;;;;;;;;14.04;69.53;101418.00;7389516;19;19967;-86
2022/11/25 14:05:45;;;;;;;;;;;;;;;14.00;68.26;101407.91;7386610;19;19954;-85
2022/11/25 14:08:15;;;;;;;;;;;;;;;13.99;68.38;101401.78;7386494;19;19929;-85
2022/11/25 14:10:46;;;;;;;;;;;;;;;14.02;69.90;101403.25;7392804;19;19923;-85